Time,TemperatureF,DewpointF,PressureIn,WindDirection,WindDirectionDegrees,WindSpeedMPH,WindSpeedGustMPH,Humidity,HourlyPrecipIn,Conditions,Clouds,dailyrainin,SoftwareType,DateUTC
2013-01-28 00:03:00,31.1,26.3,29.80,NNE,23,0.0,0.0,82,0.00,,,0.00,WUHU216HW,2013-01-28 07:03:00,
2013-01-28 00:08:00,31.1,26.3,29.80,NNE,23,0.0,0.0,82,0.00,,,0.00,WUHU216HW,2013-01-28 07:08:00,
2013-01-28 00:13:00,31.0,26.1,29.80,NNE,23,0.0,0.0,82,0.00,,,0.00,WUHU216HW,2013-01-28 07:13:00,
2013-01-28 00:18:00,31.0,26.1,29.80,NNE,23,0.0,0.0,82,0.00,,,0.00,WUHU216HW,2013-01-28 07:18:00,
2013-01-28 00:23:00,30.8,25.9,29.80,NNE,23,0.0,0.0,82,0.00,,,0.00,WUHU216HW,2013-01-28 07:23:00,
2013-01-28 00:28:00,30.8,25.9,29.80,NNE,23,0.0,0.0,82,0.00,,,0.00,WUHU216HW,2013-01-28 07:28:00,
2013-01-28 00:33:00,30.6,25.7,29.80,NNE,23,0.0,1.1,82,0.00,,,0.00,WUHU216HW,2013-01-28 07:33:00,
2013-01-28 00:38:00,30.6,25.7,29.80,NNE,23,0.7,1.1,82,0.00,,,0.00,WUHU216HW,2013-01-28 07:38:00,
2013-01-28 00:43:00,30.6,25.7,29.80,NNE,23,0.2,0.7,82,0.00,,,0.00,WUHU216HW,2013-01-28 07:43:00,
2013-01-28 00:48:00,30.6,25.7,29.79,NNE,23,1.1,1.1,82,0.00,,,0.00,WUHU216HW,2013-01-28 07:48:00,
2013-01-28 00:53:00,30.6,25.7,29.79,NNE,23,0.2,1.1,82,0.00,,,0.00,WUHU216HW,2013-01-28 07:53:00,
2013-01-28 00:58:00,30.6,25.7,29.79,NNE,23,0.4,0.7,82,0.00,,,0.00,WUHU216HW,2013-01-28 07:58:00,
2013-01-28 01:03:00,30.6,25.7,29.79,NNE,23,0.4,0.7,82,0.00,,,0.00,WUHU216HW,2013-01-28 08:03:00,
2013-01-28 01:08:00,30.6,25.7,29.79,NNE,23,0.0,0.7,82,0.00,,,0.00,WUHU216HW,2013-01-28 08:08:00,
2013-01-28 01:13:00,30.4,25.6,29.80,NNE,23,0.0,0.4,82,0.00,,,0.00,WUHU216HW,2013-01-28 08:13:00,
2013-01-28 01:18:00,30.4,25.6,29.80,NNE,23,0.0,0.0,82,0.00,,,0.00,WUHU216HW,2013-01-28 08:18:00,
2013-01-28 01:23:00,30.2,25.4,29.79,NNE,23,0.0,0.0,82,0.00,,,0.00,WUHU216HW,2013-01-28 08:23:00,
2013-01-28 01:28:00,30.2,25.4,29.80,NNE,23,0.0,0.4,82,0.00,,,0.00,WUHU216HW,2013-01-28 08:28:00,
2013-01-28 01:33:00,30.2,25.4,29.80,NNE,23,0.0,0.4,82,0.00,,,0.00,WUHU216HW,2013-01-28 08:33:00,
2013-01-28 01:38:00,30.1,25.2,29.79,NNE,23,0.0,0.0,82,0.00,,,0.00,WUHU216HW,2013-01-28 08:38:00,
2013-01-28 01:43:00,30.1,25.2,29.79,NNE,23,0.0,0.0,82,0.00,,,0.00,WUHU216HW,2013-01-28 08:43:00,
2013-01-28 01:48:00,30.1,25.2,29.79,NNE,23,1.8,1.8,82,0.00,,,0.00,WUHU216HW,2013-01-28 08:48:00,
2013-01-28 01:53:00,29.9,25.0,29.79,NNE,23,1.3,1.8,82,0.00,,,0.00,WUHU216HW,2013-01-28 08:53:00,
2013-01-28 01:58:00,29.9,25.0,29.79,NNE,23,1.3,1.8,82,0.00,,,0.00,WUHU216HW,2013-01-28 08:58:00,
2013-01-28 02:03:00,29.9,25.0,29.79,NNE,23,0.4,1.6,82,0.00,,,0.00,WUHU216HW,2013-01-28 09:03:00,
2013-01-28 02:08:00,29.9,25.0,29.79,NNE,23,0.7,1.8,82,0.00,,,0.00,WUHU216HW,2013-01-28 09:08:00,
2013-01-28 02:13:00,29.9,25.0,29.79,NNE,23,1.8,1.8,82,0.00,,,0.00,WUHU216HW,2013-01-28 09:13:00,
2013-01-28 02:18:00,29.9,25.0,29.79,NNE,23,1.1,1.8,82,0.00,,,0.00,WUHU216HW,2013-01-28 09:18:00,
2013-01-28 02:23:00,29.9,25.0,29.79,NNE,23,0.0,1.8,82,0.00,,,0.00,WUHU216HW,2013-01-28 09:23:00,
2013-01-28 02:28:00,29.7,24.8,29.79,NNE,23,0.0,0.7,82,0.00,,,0.00,WUHU216HW,2013-01-28 09:28:00,
2013-01-28 02:33:00,29.7,25.2,29.79,NNE,23,0.4,0.9,83,0.00,,,0.00,WUHU216HW,2013-01-28 09:33:00,
2013-01-28 02:38:00,29.7,25.2,29.79,NNE,23,0.4,0.9,83,0.00,,,0.00,WUHU216HW,2013-01-28 09:38:00,
2013-01-28 02:43:00,29.7,25.2,29.79,NNE,23,0.4,0.7,83,0.00,,,0.00,WUHU216HW,2013-01-28 09:43:00,
2013-01-28 02:48:00,29.7,25.2,29.79,NNE,23,0.0,1.3,83,0.00,,,0.00,WUHU216HW,2013-01-28 09:48:00,
2013-01-28 02:53:00,29.5,25.0,29.79,NNE,23,1.8,1.8,83,0.00,,,0.00,WUHU216HW,2013-01-28 09:53:00,
2013-01-28 02:58:00,29.7,25.2,29.79,NNE,23,0.9,1.8,83,0.00,,,0.00,WUHU216HW,2013-01-28 09:58:00,
2013-01-28 03:03:00,29.5,25.0,29.79,NNE,23,0.4,1.3,83,0.00,,,0.00,WUHU216HW,2013-01-28 10:03:00,
2013-01-28 03:08:00,29.5,25.0,29.79,NNE,23,0.4,2.2,83,0.00,,,0.00,WUHU216HW,2013-01-28 10:08:00,
2013-01-28 03:13:00,29.5,25.0,29.79,NNE,23,0.4,2.2,83,0.00,,,0.00,WUHU216HW,2013-01-28 10:13:00,
2013-01-28 03:18:00,29.5,25.0,29.79,NNE,23,0.4,1.8,83,0.00,,,0.00,WUHU216HW,2013-01-28 10:18:00,
2013-01-28 03:23:00,29.5,25.0,29.79,NNE,23,0.4,2.0,83,0.00,,,0.00,WUHU216HW,2013-01-28 10:23:00,
2013-01-28 03:28:00,29.5,25.0,29.79,NNE,23,1.8,4.0,83,0.00,,,0.00,WUHU216HW,2013-01-28 10:28:00,
2013-01-28 03:33:00,29.5,25.3,29.79,NNE,23,0.4,4.0,84,0.00,,,0.00,WUHU216HW,2013-01-28 10:33:00,
2013-01-28 03:38:00,29.5,25.0,29.79,NNE,23,0.4,2.5,83,0.00,,,0.00,WUHU216HW,2013-01-28 10:38:00,
2013-01-28 03:43:00,29.7,25.2,29.79,NNE,23,0.4,2.0,83,0.00,,,0.00,WUHU216HW,2013-01-28 10:43:00,
2013-01-28 03:48:00,29.7,25.2,29.79,NNE,23,0.9,2.9,83,0.00,,,0.00,WUHU216HW,2013-01-28 10:48:00,
2013-01-28 03:53:00,29.7,25.2,29.79,NNE,23,1.6,3.4,83,0.00,,,0.00,WUHU216HW,2013-01-28 10:53:00,
2013-01-28 03:58:00,29.7,25.2,29.79,NNE,23,1.8,3.4,83,0.00,,,0.00,WUHU216HW,2013-01-28 10:58:00,
2013-01-28 04:03:00,29.7,25.2,29.79,NNE,23,1.6,2.7,83,0.00,,,0.00,WUHU216HW,2013-01-28 11:03:00,
2013-01-28 04:08:00,29.7,25.2,29.79,NNE,23,2.2,3.6,83,0.00,,,0.00,WUHU216HW,2013-01-28 11:08:00,
2013-01-28 04:13:00,29.7,25.2,29.79,NNE,23,1.8,3.6,83,0.00,,,0.00,WUHU216HW,2013-01-28 11:13:00,
2013-01-28 04:18:00,29.7,25.2,29.79,NNE,23,3.4,3.4,83,0.00,,,0.00,WUHU216HW,2013-01-28 11:18:00,
2013-01-28 04:23:00,29.7,25.2,29.79,NNE,23,3.4,3.6,83,0.00,,,0.00,WUHU216HW,2013-01-28 11:23:00,
2013-01-28 04:28:00,29.9,25.4,29.79,NNE,23,0.4,3.6,83,0.00,,,0.00,WUHU216HW,2013-01-28 11:28:00,
2013-01-28 04:33:00,29.7,25.2,29.79,NNE,23,0.4,1.3,83,0.00,,,0.00,WUHU216HW,2013-01-28 11:33:00,
2013-01-28 04:38:00,29.7,25.2,29.79,NNE,23,0.9,0.9,83,0.00,,,0.00,WUHU216HW,2013-01-28 11:38:00,
2013-01-28 04:43:00,29.5,25.0,29.79,NNE,23,3.4,3.4,83,0.00,,,0.00,WUHU216HW,2013-01-28 11:43:00,
2013-01-28 04:48:00,29.5,25.0,29.79,NNE,23,1.8,3.8,83,0.00,,,0.00,WUHU216HW,2013-01-28 11:48:00,
2013-01-28 04:53:00,29.5,25.0,29.80,NNE,23,1.3,3.8,83,0.00,,,0.00,WUHU216HW,2013-01-28 11:53:00,
2013-01-28 04:58:00,29.5,25.0,29.79,NNE,23,0.7,2.0,83,0.00,,,0.00,WUHU216HW,2013-01-28 11:58:00,
2013-01-28 05:03:00,29.5,25.0,29.79,NNE,23,2.0,2.0,83,0.00,,,0.00,WUHU216HW,2013-01-28 12:03:00,
2013-01-28 05:08:00,29.5,25.0,29.79,NNE,23,2.2,2.7,83,0.00,,,0.00,WUHU216HW,2013-01-28 12:08:00,
2013-01-28 05:13:00,29.5,24.7,29.79,NNE,23,1.1,2.7,82,0.00,,,0.00,WUHU216HW,2013-01-28 12:13:00,
2013-01-28 05:18:00,29.5,24.7,29.79,NNE,23,1.6,2.5,82,0.00,,,0.00,WUHU216HW,2013-01-28 12:18:00,
2013-01-28 05:23:00,29.5,24.7,29.79,NNE,23,1.3,2.5,82,0.00,,,0.00,WUHU216HW,2013-01-28 12:23:00,
2013-01-28 05:28:00,29.5,24.7,29.79,NNE,23,0.4,2.2,82,0.00,,,0.00,WUHU216HW,2013-01-28 12:28:00,
2013-01-28 05:33:00,29.5,24.7,29.79,NNE,23,1.1,3.1,82,0.00,,,0.00,WUHU216HW,2013-01-28 12:33:00,
2013-01-28 05:38:00,29.5,24.4,29.79,NNE,23,1.3,3.1,81,0.00,,,0.00,WUHU216HW,2013-01-28 12:38:00,
2013-01-28 05:43:00,29.3,24.2,29.79,NNE,23,0.9,3.1,81,0.00,,,0.00,WUHU216HW,2013-01-28 12:43:00,
2013-01-28 05:48:00,29.3,24.2,29.79,NNE,23,0.4,3.1,81,0.00,,,0.00,WUHU216HW,2013-01-28 12:48:00,
2013-01-28 05:53:00,29.2,24.0,29.79,NNE,23,0.0,1.6,81,0.00,,,0.00,WUHU216HW,2013-01-28 12:53:00,
2013-01-28 05:58:00,29.2,24.0,29.79,NNE,23,0.0,0.4,81,0.00,,,0.00,WUHU216HW,2013-01-28 12:58:00,
2013-01-28 06:03:00,29.2,24.0,29.79,NNE,23,0.0,0.0,81,0.00,,,0.00,WUHU216HW,2013-01-28 13:03:00,
2013-01-28 06:08:00,29.2,24.0,29.80,NNE,23,0.0,0.0,81,0.00,,,0.00,WUHU216HW,2013-01-28 13:08:00,
2013-01-28 06:13:00,29.0,23.9,29.80,NNE,23,0.0,0.0,81,0.00,,,0.00,WUHU216HW,2013-01-28 13:13:00,
2013-01-28 06:18:00,29.0,23.9,29.80,NNE,23,0.0,0.0,81,0.00,,,0.00,WUHU216HW,2013-01-28 13:18:00,
2013-01-28 06:23:00,28.8,23.7,29.80,NNE,23,0.0,0.0,81,0.00,,,0.00,WUHU216HW,2013-01-28 13:23:00,
2013-01-28 06:28:00,28.6,23.5,29.80,NNE,23,0.0,0.0,81,0.00,,,0.00,WUHU216HW,2013-01-28 13:28:00,
2013-01-28 06:33:00,28.6,23.5,29.80,NNE,23,0.0,0.0,81,0.00,,,0.00,WUHU216HW,2013-01-28 13:33:00,
2013-01-28 06:38:00,28.4,23.3,29.80,NNE,23,0.0,0.0,81,0.00,,,0.00,WUHU216HW,2013-01-28 13:38:00,
2013-01-28 06:43:00,28.4,23.3,29.80,NNE,23,0.4,0.4,81,0.00,,,0.00,WUHU216HW,2013-01-28 13:43:00,
2013-01-28 06:48:00,28.4,23.3,29.80,NNE,23,0.4,0.4,81,0.00,,,0.00,WUHU216HW,2013-01-28 13:48:00,
2013-01-28 06:53:00,28.3,23.1,29.80,NNE,23,0.0,0.7,81,0.00,,,0.00,WUHU216HW,2013-01-28 13:53:00,
2013-01-28 06:58:00,28.3,23.4,29.80,NNE,23,0.0,0.7,82,0.00,,,0.00,WUHU216HW,2013-01-28 13:58:00,
2013-01-28 07:03:00,28.3,23.4,29.80,NNE,23,0.0,0.0,82,0.00,,,0.00,WUHU216HW,2013-01-28 14:03:00,
2013-01-28 07:08:00,28.3,23.4,29.80,NNE,23,0.0,0.0,82,0.00,,,0.00,WUHU216HW,2013-01-28 14:08:00,
2013-01-28 07:13:00,28.1,23.2,29.80,NNE,23,0.0,0.0,82,0.00,,,0.00,WUHU216HW,2013-01-28 14:13:00,
2013-01-28 07:18:00,28.1,23.2,29.80,NNE,23,0.0,0.0,82,0.00,,,0.00,WUHU216HW,2013-01-28 14:18:00,
2013-01-28 07:23:00,27.9,23.0,29.81,NNE,23,0.0,0.0,82,0.00,,,0.00,WUHU216HW,2013-01-28 14:23:00,
2013-01-28 07:28:00,27.9,23.0,29.81,NNE,23,0.0,0.0,82,0.00,,,0.00,WUHU216HW,2013-01-28 14:28:00,
2013-01-28 07:33:00,27.9,23.0,29.81,NNE,23,0.0,0.0,82,0.00,,,0.00,WUHU216HW,2013-01-28 14:33:00,
2013-01-28 07:38:00,27.7,22.9,29.81,NNE,23,0.4,0.4,82,0.00,,,0.00,WUHU216HW,2013-01-28 14:38:00,
2013-01-28 07:43:00,27.7,22.9,29.81,NNE,23,0.0,0.4,82,0.00,,,0.00,WUHU216HW,2013-01-28 14:43:00,
2013-01-28 07:48:00,27.7,22.9,29.81,NNE,23,0.0,0.0,82,0.00,,,0.00,WUHU216HW,2013-01-28 14:48:00,
2013-01-28 07:53:00,27.7,22.9,29.81,NNE,23,0.0,0.0,82,0.00,,,0.00,WUHU216HW,2013-01-28 14:53:00,
2013-01-28 07:58:00,27.7,23.2,29.80,NNE,23,0.0,0.0,83,0.00,,,0.00,WUHU216HW,2013-01-28 14:58:00,
2013-01-28 08:03:00,27.7,23.2,29.80,NNE,23,0.0,0.9,83,0.00,,,0.00,WUHU216HW,2013-01-28 15:03:00,
2013-01-28 08:08:00,27.7,23.2,29.80,NNE,23,0.9,1.1,83,0.00,,,0.00,WUHU216HW,2013-01-28 15:08:00,
2013-01-28 08:13:00,27.7,23.2,29.80,NNE,23,0.7,1.3,83,0.00,,,0.00,WUHU216HW,2013-01-28 15:13:00,
2013-01-28 08:18:00,27.7,23.2,29.80,NNE,23,0.9,1.3,83,0.00,,,0.00,WUHU216HW,2013-01-28 15:18:00,
2013-01-28 08:23:00,27.7,23.2,29.80,NNE,23,3.4,3.4,83,0.00,,,0.00,WUHU216HW,2013-01-28 15:23:00,
2013-01-28 08:28:00,27.9,23.4,29.80,NNE,23,1.1,3.4,83,0.00,,,0.00,WUHU216HW,2013-01-28 15:28:00,
2013-01-28 08:33:00,28.1,23.2,29.81,NNE,23,0.4,1.8,82,0.00,,,0.00,WUHU216HW,2013-01-28 15:33:00,
2013-01-28 08:38:00,28.1,23.2,29.81,NNE,23,0.4,1.6,82,0.00,,,0.00,WUHU216HW,2013-01-28 15:38:00,
2013-01-28 08:43:00,28.3,23.4,29.80,NNE,23,2.2,2.2,82,0.00,,,0.00,WUHU216HW,2013-01-28 15:43:00,
2013-01-28 08:48:00,28.4,23.3,29.80,NNE,23,1.6,3.8,81,0.00,,,0.00,WUHU216HW,2013-01-28 15:48:00,
2013-01-28 08:53:00,28.4,23.3,29.80,NNE,23,1.6,3.8,81,0.00,,,0.00,WUHU216HW,2013-01-28 15:53:00,
2013-01-28 08:58:00,28.4,23.3,29.80,NNE,23,1.3,3.4,81,0.00,,,0.00,WUHU216HW,2013-01-28 15:58:00,
2013-01-28 09:03:00,28.4,23.3,29.80,NNE,23,1.1,3.4,81,0.00,,,0.00,WUHU216HW,2013-01-28 16:03:00,
2013-01-28 09:08:00,28.4,23.3,29.80,NNE,23,1.8,2.5,81,0.00,,,0.00,WUHU216HW,2013-01-28 16:08:00,
2013-01-28 09:13:00,28.6,23.2,29.80,NNE,23,0.4,2.2,80,0.00,,,0.00,WUHU216HW,2013-01-28 16:13:00,
2013-01-28 09:18:00,28.4,23.0,29.80,NNE,23,2.0,2.0,80,0.00,,,0.00,WUHU216HW,2013-01-28 16:18:00,
2013-01-28 09:23:00,28.4,23.0,29.80,NNE,23,1.8,2.9,80,0.00,,,0.00,WUHU216HW,2013-01-28 16:23:00,
2013-01-28 09:28:00,28.6,23.2,29.80,NNE,23,1.1,2.9,80,0.00,,,0.00,WUHU216HW,2013-01-28 16:28:00,
2013-01-28 09:33:00,28.6,23.0,29.80,NNE,23,1.1,2.5,79,0.00,,,0.00,WUHU216HW,2013-01-28 16:33:00,
2013-01-28 09:38:00,29.0,23.3,29.80,NNE,23,0.4,2.0,79,0.00,,,0.00,WUHU216HW,2013-01-28 16:38:00,
2013-01-28 09:43:00,29.3,23.7,29.80,NNE,23,0.0,1.8,79,0.00,,,0.00,WUHU216HW,2013-01-28 16:43:00,
2013-01-28 09:48:00,30.1,24.3,29.80,NNE,23,1.1,1.1,79,0.00,,,0.00,WUHU216HW,2013-01-28 16:48:00,
2013-01-28 09:53:00,30.8,25.0,29.81,NNE,23,0.4,1.1,79,0.00,,,0.00,WUHU216HW,2013-01-28 16:53:00,
2013-01-28 09:58:00,31.3,25.3,29.80,NNE,23,2.0,2.0,78,0.00,,,0.00,WUHU216HW,2013-01-28 16:58:00,
2013-01-28 10:03:00,32.0,26.0,29.80,NNE,23,0.0,2.7,78,0.00,,,0.00,WUHU216HW,2013-01-28 17:03:00,
2013-01-28 10:08:00,32.4,26.0,29.80,NNE,23,0.2,4.7,77,0.00,,,0.00,WUHU216HW,2013-01-28 17:08:00,
2013-01-28 10:13:00,32.6,26.2,29.80,NNE,23,1.8,4.7,77,0.00,,,0.00,WUHU216HW,2013-01-28 17:13:00,
2013-01-28 10:18:00,32.6,25.8,29.80,NNE,23,2.2,4.0,76,0.00,,,0.00,WUHU216HW,2013-01-28 17:18:00,
2013-01-28 10:23:00,32.8,26.0,29.80,NNE,23,2.9,4.0,76,0.00,,,0.00,WUHU216HW,2013-01-28 17:23:00,
2013-01-28 10:28:00,32.8,25.7,29.80,NNE,23,2.2,3.4,75,0.00,,,0.00,WUHU216HW,2013-01-28 17:28:00,
2013-01-28 10:33:00,32.9,25.8,29.80,NNE,23,2.5,3.8,75,0.00,,,0.00,WUHU216HW,2013-01-28 17:33:00,
2013-01-28 10:38:00,33.3,26.2,29.80,NNE,23,0.4,3.8,75,0.00,,,0.00,WUHU216HW,2013-01-28 17:38:00,
2013-01-28 10:43:00,33.5,26.0,29.81,NNE,23,0.7,1.3,74,0.00,,,0.00,WUHU216HW,2013-01-28 17:43:00,
2013-01-28 10:48:00,33.8,26.3,29.81,NNE,23,2.2,4.0,74,0.00,,,0.00,WUHU216HW,2013-01-28 17:48:00,
2013-01-28 10:53:00,34.2,26.0,29.81,NNE,23,4.0,4.0,72,0.01,,,0.01,WUHU216HW,2013-01-28 17:53:00,
2013-01-28 10:58:00,34.4,26.6,29.81,NNE,23,2.5,4.0,73,0.01,,,0.01,WUHU216HW,2013-01-28 17:58:00,
2013-01-28 11:03:00,34.7,26.6,29.81,NNE,23,0.4,2.9,72,0.01,,,0.01,WUHU216HW,2013-01-28 18:03:00,
2013-01-28 11:08:00,35.3,27.1,29.81,SSW,203,1.3,3.4,72,0.01,,,0.01,WUHU216HW,2013-01-28 18:08:00,
2013-01-28 11:13:00,35.5,27.3,29.81,SW,225,2.0,3.4,72,0.01,,,0.01,WUHU216HW,2013-01-28 18:13:00,
2013-01-28 11:18:00,35.6,27.2,29.81,SSE,158,2.0,2.0,71,0.01,,,0.01,WUHU216HW,2013-01-28 18:18:00,
2013-01-28 11:23:00,35.8,27.4,29.81,SSE,158,0.7,2.0,71,0.01,,,0.01,WUHU216HW,2013-01-28 18:23:00,
2013-01-28 11:28:00,36.4,27.9,29.80,SSE,158,1.8,1.8,71,0.01,,,0.01,WUHU216HW,2013-01-28 18:28:00,
2013-01-28 11:33:00,36.4,27.5,29.80,SSW,203,1.8,2.9,70,0.01,,,0.01,WUHU216HW,2013-01-28 18:33:00,
2013-01-28 11:38:00,36.4,27.2,29.80,WSW,248,2.2,4.0,69,0.01,,,0.01,WUHU216HW,2013-01-28 18:38:00,
2013-01-28 11:43:00,36.2,27.0,29.80,SW,225,2.7,4.7,69,0.01,,,0.01,WUHU216HW,2013-01-28 18:43:00,
2013-01-28 11:48:00,36.4,26.8,29.79,South,180,3.4,6.3,68,0.00,,,0.01,WUHU216HW,2013-01-28 18:48:00,
2013-01-28 11:53:00,36.7,27.2,29.79,SSW,203,1.8,6.3,68,0.00,,,0.01,WUHU216HW,2013-01-28 18:53:00,
2013-01-28 11:58:00,36.9,27.0,29.79,SW,225,1.1,3.1,67,0.00,,,0.01,WUHU216HW,2013-01-28 18:58:00,
2013-01-28 12:03:00,37.1,27.2,29.79,SW,225,2.0,3.1,67,0.00,,,0.01,WUHU216HW,2013-01-28 19:03:00,
2013-01-28 12:08:00,37.3,27.3,29.79,SSE,158,4.0,4.0,67,0.00,,,0.01,WUHU216HW,2013-01-28 19:08:00,
2013-01-28 12:13:00,37.3,26.9,29.78,SSE,158,3.6,4.0,66,0.00,,,0.01,WUHU216HW,2013-01-28 19:13:00,
2013-01-28 12:18:00,37.1,26.7,29.78,SE,135,1.3,3.6,66,0.00,,,0.01,WUHU216HW,2013-01-28 19:18:00,
2013-01-28 12:23:00,37.4,27.1,29.78,SW,225,1.1,3.4,66,0.00,,,0.01,WUHU216HW,2013-01-28 19:23:00,
2013-01-28 12:28:00,37.4,27.1,29.77,South,180,2.0,3.4,66,0.00,,,0.01,WUHU216HW,2013-01-28 19:28:00,
2013-01-28 12:33:00,37.6,27.3,29.77,South,180,4.5,4.5,66,0.00,,,0.01,WUHU216HW,2013-01-28 19:33:00,
2013-01-28 12:38:00,38.0,27.2,29.77,SSE,158,0.9,4.5,65,0.00,,,0.01,WUHU216HW,2013-01-28 19:38:00,
2013-01-28 12:43:00,38.2,27.0,29.77,SSE,158,5.4,5.4,64,0.00,,,0.01,WUHU216HW,2013-01-28 19:43:00,
2013-01-28 12:48:00,38.3,26.8,29.77,SSW,203,4.0,5.4,63,0.00,,,0.01,WUHU216HW,2013-01-28 19:48:00,
2013-01-28 12:53:00,38.3,26.8,29.76,South,180,4.3,4.3,63,0.00,,,0.01,WUHU216HW,2013-01-28 19:53:00,
2013-01-28 12:58:00,38.5,26.9,29.76,SE,135,2.5,4.3,63,0.00,,,0.01,WUHU216HW,2013-01-28 19:58:00,
2013-01-28 13:03:00,38.5,26.9,29.76,SE,135,1.3,7.6,63,0.00,,,0.01,WUHU216HW,2013-01-28 20:03:00,
2013-01-28 13:08:00,38.5,26.9,29.76,SW,225,1.8,7.6,63,0.00,,,0.01,WUHU216HW,2013-01-28 20:08:00,
2013-01-28 13:13:00,38.5,26.9,29.75,SW,225,3.4,5.4,63,0.00,,,0.01,WUHU216HW,2013-01-28 20:13:00,
2013-01-28 13:18:00,38.9,26.6,29.75,West,270,3.4,4.7,61,0.00,,,0.01,WUHU216HW,2013-01-28 20:18:00,
2013-01-28 13:23:00,39.1,27.1,29.75,South,180,1.8,5.1,62,0.00,,,0.01,WUHU216HW,2013-01-28 20:23:00,
2013-01-28 13:28:00,38.9,26.9,29.74,SSW,203,2.5,5.1,62,0.00,,,0.01,WUHU216HW,2013-01-28 20:28:00,
2013-01-28 13:33:00,38.3,26.4,29.74,SSW,203,4.3,4.3,62,0.00,,,0.01,WUHU216HW,2013-01-28 20:33:00,
2013-01-28 13:38:00,38.0,26.1,29.74,SSW,203,4.7,4.7,62,0.00,,,0.01,WUHU216HW,2013-01-28 20:38:00,
2013-01-28 13:43:00,38.2,23.8,29.74,WSW,248,7.8,8.5,56,0.00,,,0.01,WUHU216HW,2013-01-28 20:43:00,
2013-01-28 13:48:00,38.5,22.8,29.74,WSW,248,3.4,9.2,53,0.00,,,0.01,WUHU216HW,2013-01-28 20:48:00,
2013-01-28 13:53:00,38.7,21.2,29.74,WSW,248,6.3,11.4,49,0.00,,,0.01,WUHU216HW,2013-01-28 20:53:00,
2013-01-28 13:58:00,38.5,21.5,29.73,SW,225,4.3,11.4,50,0.00,,,0.01,WUHU216HW,2013-01-28 20:58:00,
2013-01-28 14:03:00,38.2,21.2,29.73,WSW,248,3.8,9.2,50,0.00,,,0.01,WUHU216HW,2013-01-28 21:03:00,
2013-01-28 14:08:00,37.8,21.2,29.73,West,270,6.5,8.9,51,0.00,,,0.01,WUHU216HW,2013-01-28 21:08:00,
2013-01-28 14:13:00,37.8,21.2,29.73,WSW,248,4.5,6.5,51,0.00,,,0.01,WUHU216HW,2013-01-28 21:13:00,
2013-01-28 14:18:00,37.8,21.2,29.73,WSW,248,4.5,7.6,51,0.00,,,0.01,WUHU216HW,2013-01-28 21:18:00,
2013-01-28 14:23:00,37.8,20.4,29.73,West,270,3.1,7.6,49,0.00,,,0.01,WUHU216HW,2013-01-28 21:23:00,
2013-01-28 14:28:00,37.8,18.7,29.73,SW,225,9.2,9.2,46,0.00,,,0.01,WUHU216HW,2013-01-28 21:28:00,
2013-01-28 14:33:00,37.6,19.1,29.72,WSW,248,5.8,11.2,47,0.00,,,0.01,WUHU216HW,2013-01-28 21:33:00,
2013-01-28 14:38:00,37.4,17.4,29.72,WSW,248,7.8,15.9,44,0.00,,,0.01,WUHU216HW,2013-01-28 21:38:00,
2013-01-28 14:43:00,37.4,17.9,29.72,WSW,248,5.4,15.9,45,0.00,,,0.01,WUHU216HW,2013-01-28 21:43:00,
2013-01-28 14:48:00,37.4,17.9,29.73,WSW,248,10.3,10.3,45,0.00,,,0.01,WUHU216HW,2013-01-28 21:48:00,
2013-01-28 14:53:00,37.3,17.7,29.73,WSW,248,6.0,10.3,45,0.00,,,0.01,WUHU216HW,2013-01-28 21:53:00,
2013-01-28 14:58:00,37.3,17.2,29.73,WSW,248,10.1,10.1,44,0.00,,,0.01,WUHU216HW,2013-01-28 21:58:00,
2013-01-28 15:03:00,37.1,17.1,29.73,West,270,8.5,13.6,44,0.00,,,0.01,WUHU216HW,2013-01-28 22:03:00,
2013-01-28 15:08:00,37.1,17.1,29.73,West,270,7.4,13.6,44,0.00,,,0.01,WUHU216HW,2013-01-28 22:08:00,
2013-01-28 15:13:00,36.7,16.7,29.73,WSW,248,5.8,11.0,44,0.00,,,0.01,WUHU216HW,2013-01-28 22:13:00,
2013-01-28 15:18:00,36.7,16.7,29.73,WSW,248,8.3,12.8,44,0.00,,,0.01,WUHU216HW,2013-01-28 22:18:00,
2013-01-28 15:23:00,37.1,16.6,29.73,WSW,248,8.1,12.8,43,0.00,,,0.01,WUHU216HW,2013-01-28 22:23:00,
2013-01-28 15:28:00,37.3,17.7,29.73,WSW,248,4.7,11.2,45,0.00,,,0.01,WUHU216HW,2013-01-28 22:28:00,
2013-01-28 15:33:00,37.4,16.8,29.73,WSW,248,9.2,10.7,43,0.00,,,0.01,WUHU216HW,2013-01-28 22:33:00,
2013-01-28 15:38:00,37.3,16.8,29.73,WSW,248,11.9,11.9,43,0.00,,,0.01,WUHU216HW,2013-01-28 22:38:00,
2013-01-28 15:43:00,37.1,16.6,29.73,WSW,248,8.1,11.9,43,0.00,,,0.01,WUHU216HW,2013-01-28 22:43:00,
2013-01-28 15:48:00,36.7,16.7,29.73,WSW,248,5.4,10.1,44,0.00,,,0.01,WUHU216HW,2013-01-28 22:48:00,
2013-01-28 15:53:00,36.5,16.0,29.73,WSW,248,4.3,8.9,43,0.00,,,0.01,WUHU216HW,2013-01-28 22:53:00,
2013-01-28 15:58:00,36.4,16.4,29.73,WSW,248,6.3,10.5,44,0.00,,,0.01,WUHU216HW,2013-01-28 22:58:00,
2013-01-28 16:03:00,36.4,15.9,29.72,WSW,248,7.2,10.5,43,0.00,,,0.01,WUHU216HW,2013-01-28 23:03:00,
2013-01-28 16:08:00,36.4,15.9,29.73,West,270,5.4,10.5,43,0.00,,,0.01,WUHU216HW,2013-01-28 23:08:00,
2013-01-28 16:13:00,36.5,16.6,29.73,WNW,293,6.9,10.5,44,0.00,,,0.01,WUHU216HW,2013-01-28 23:13:00,
2013-01-28 16:18:00,36.4,15.4,29.73,West,270,7.2,11.0,42,0.00,,,0.01,WUHU216HW,2013-01-28 23:18:00,
2013-01-28 16:23:00,36.4,15.9,29.73,SSW,203,8.3,11.0,43,0.00,,,0.01,WUHU216HW,2013-01-28 23:23:00,
2013-01-28 16:28:00,36.4,16.4,29.73,West,270,8.1,10.5,44,0.00,,,0.01,WUHU216HW,2013-01-28 23:28:00,
2013-01-28 16:33:00,36.4,16.4,29.73,WNW,293,7.2,9.4,44,0.00,,,0.01,WUHU216HW,2013-01-28 23:33:00,
2013-01-28 16:38:00,36.0,16.7,29.73,SE,135,6.0,9.4,45,0.00,,,0.01,WUHU216HW,2013-01-28 23:38:00,
2013-01-28 16:43:00,35.8,15.9,29.73,WSW,248,5.4,8.7,44,0.00,,,0.01,WUHU216HW,2013-01-28 23:43:00,
2013-01-28 16:48:00,35.6,15.8,29.73,WSW,248,6.9,9.2,44,0.00,,,0.01,WUHU216HW,2013-01-28 23:48:00,
2013-01-28 16:53:00,35.5,15.1,29.73,WSW,248,9.8,9.8,43,0.00,,,0.01,WUHU216HW,2013-01-28 23:53:00,
2013-01-28 16:58:00,35.3,15.0,29.73,WSW,248,5.1,9.8,43,0.00,,,0.01,WUHU216HW,2013-01-28 23:58:00,
2013-01-28 17:03:00,34.9,15.1,29.73,SW,225,6.0,8.7,44,0.00,,,0.01,WUHU216HW,2013-01-29 00:03:00,
2013-01-28 17:08:00,34.7,15.0,29.73,WSW,248,4.7,8.5,44,0.00,,,0.01,WUHU216HW,2013-01-29 00:08:00,
2013-01-28 17:13:00,34.6,15.3,29.74,West,270,4.0,6.9,45,0.00,,,0.01,WUHU216HW,2013-01-29 00:13:00,
2013-01-28 17:18:00,34.2,15.0,29.73,West,270,4.7,8.5,45,0.00,,,0.01,WUHU216HW,2013-01-29 00:18:00,
2013-01-28 17:23:00,33.8,14.6,29.74,West,270,5.4,8.5,45,0.00,,,0.01,WUHU216HW,2013-01-29 00:23:00,
2013-01-28 17:28:00,33.7,14.4,29.74,WSW,248,4.7,6.9,45,0.00,,,0.01,WUHU216HW,2013-01-29 00:28:00,
2013-01-28 17:33:00,33.5,14.2,29.74,West,270,5.8,7.8,45,0.00,,,0.01,WUHU216HW,2013-01-29 00:33:00,
2013-01-28 17:38:00,33.3,14.6,29.74,WSW,248,4.9,8.1,46,0.00,,,0.01,WUHU216HW,2013-01-29 00:38:00,
2013-01-28 17:43:00,32.9,14.3,29.74,WSW,248,5.4,8.1,46,0.00,,,0.01,WUHU216HW,2013-01-29 00:43:00,
2013-01-28 17:48:00,32.8,14.1,29.74,West,270,6.3,7.6,46,0.00,,,0.01,WUHU216HW,2013-01-29 00:48:00,
2013-01-28 17:53:00,32.6,14.5,29.74,West,270,4.0,7.2,47,0.00,,,0.01,WUHU216HW,2013-01-29 00:53:00,
2013-01-28 17:58:00,32.4,14.3,29.74,WSW,248,5.1,7.2,47,0.00,,,0.01,WUHU216HW,2013-01-29 00:58:00,
2013-01-28 18:03:00,32.0,14.0,29.74,West,270,6.0,6.5,47,0.00,,,0.01,WUHU216HW,2013-01-29 01:03:00,
2013-01-28 18:08:00,32.0,14.0,29.74,SW,225,7.8,7.8,47,0.00,,,0.01,WUHU216HW,2013-01-29 01:08:00,
2013-01-28 18:13:00,31.9,13.8,29.74,SW,225,6.5,7.8,47,0.00,,,0.01,WUHU216HW,2013-01-29 01:13:00,
2013-01-28 18:18:00,31.7,13.7,29.74,SSW,203,3.6,7.6,47,0.00,,,0.01,WUHU216HW,2013-01-29 01:18:00,
2013-01-28 18:23:00,31.5,14.0,29.74,WSW,248,6.3,6.5,48,0.00,,,0.01,WUHU216HW,2013-01-29 01:23:00,
2013-01-28 18:28:00,31.3,14.9,29.74,SSW,203,3.6,6.9,50,0.00,,,0.01,WUHU216HW,2013-01-29 01:28:00,
2013-01-28 18:33:00,31.1,15.5,29.74,WSW,248,5.4,6.9,52,0.00,,,0.01,WUHU216HW,2013-01-29 01:33:00,
2013-01-28 18:38:00,31.0,15.4,29.74,SW,225,6.5,6.5,52,0.00,,,0.01,WUHU216HW,2013-01-29 01:38:00,
2013-01-28 18:43:00,30.6,15.5,29.74,WSW,248,5.4,7.6,53,0.00,,,0.01,WUHU216HW,2013-01-29 01:43:00,
2013-01-28 18:48:00,30.6,15.8,29.74,WSW,248,4.0,7.6,54,0.00,,,0.01,WUHU216HW,2013-01-29 01:48:00,
2013-01-28 18:53:00,30.4,15.7,29.74,West,270,3.4,7.6,54,0.00,,,0.01,WUHU216HW,2013-01-29 01:53:00,
2013-01-28 18:58:00,30.2,15.9,29.74,WSW,248,4.5,7.6,55,0.00,,,0.01,WUHU216HW,2013-01-29 01:58:00,
2013-01-28 19:03:00,30.2,15.9,29.74,WSW,248,4.9,5.8,55,0.00,,,0.01,WUHU216HW,2013-01-29 02:03:00,
2013-01-28 19:08:00,30.1,16.2,29.74,SW,225,4.7,5.8,56,0.00,,,0.01,WUHU216HW,2013-01-29 02:08:00,
2013-01-28 19:13:00,29.9,16.5,29.74,WSW,248,5.4,7.2,57,0.00,,,0.01,WUHU216HW,2013-01-29 02:13:00,
2013-01-28 19:18:00,29.9,16.8,29.74,SW,225,2.5,7.2,58,0.00,,,0.01,WUHU216HW,2013-01-29 02:18:00,
2013-01-28 19:23:00,29.7,17.6,29.73,SW,225,6.3,6.9,60,0.00,,,0.01,WUHU216HW,2013-01-29 02:23:00,
2013-01-28 19:28:00,29.5,17.4,29.74,SW,225,4.0,7.8,60,0.00,,,0.01,WUHU216HW,2013-01-29 02:28:00,
2013-01-28 19:33:00,29.3,17.6,29.73,South,180,4.0,7.8,61,0.00,,,0.01,WUHU216HW,2013-01-29 02:33:00,
2013-01-28 19:38:00,29.2,17.4,29.73,WSW,248,4.7,5.8,61,0.00,,,0.01,WUHU216HW,2013-01-29 02:38:00,
2013-01-28 19:43:00,29.2,17.7,29.73,SSW,203,1.3,5.8,62,0.00,,,0.01,WUHU216HW,2013-01-29 02:43:00,
2013-01-28 19:48:00,29.0,17.6,29.73,WSW,248,3.4,5.4,62,0.00,,,0.01,WUHU216HW,2013-01-29 02:48:00,
2013-01-28 19:53:00,29.0,17.6,29.73,SW,225,6.3,6.3,62,0.00,,,0.01,WUHU216HW,2013-01-29 02:53:00,
2013-01-28 19:58:00,28.8,18.2,29.73,SW,225,6.0,6.9,64,0.00,,,0.01,WUHU216HW,2013-01-29 02:58:00,
2013-01-28 20:03:00,28.8,18.2,29.72,SSW,203,4.5,9.4,64,0.00,,,0.01,WUHU216HW,2013-01-29 03:03:00,
2013-01-28 20:08:00,28.6,18.4,29.72,WSW,248,8.1,9.4,65,0.00,,,0.01,WUHU216HW,2013-01-29 03:08:00,
2013-01-28 20:13:00,28.6,18.0,29.72,WSW,248,3.6,8.5,64,0.00,,,0.01,WUHU216HW,2013-01-29 03:13:00,
2013-01-28 20:18:00,28.4,17.8,29.72,West,270,2.7,8.5,64,0.00,,,0.01,WUHU216HW,2013-01-29 03:18:00,
2013-01-28 20:23:00,28.4,17.8,29.72,SW,225,5.6,6.0,64,0.00,,,0.01,WUHU216HW,2013-01-29 03:23:00,
2013-01-28 20:28:00,28.3,17.6,29.72,SW,225,5.1,6.0,64,0.00,,,0.01,WUHU216HW,2013-01-29 03:28:00,
2013-01-28 20:33:00,27.9,17.3,29.72,West,270,5.4,7.2,64,0.00,,,0.01,WUHU216HW,2013-01-29 03:33:00,
2013-01-28 20:38:00,27.9,17.3,29.72,SW,225,4.0,7.4,64,0.00,,,0.01,WUHU216HW,2013-01-29 03:38:00,
2013-01-28 20:43:00,27.7,17.1,29.72,West,270,4.3,8.9,64,0.00,,,0.01,WUHU216HW,2013-01-29 03:43:00,
2013-01-28 20:48:00,27.7,17.1,29.72,SW,225,5.6,8.9,64,0.00,,,0.01,WUHU216HW,2013-01-29 03:48:00,
2013-01-28 20:53:00,27.5,17.6,29.72,SW,225,7.2,9.8,66,0.00,,,0.01,WUHU216HW,2013-01-29 03:53:00,
2013-01-28 20:58:00,27.5,17.3,29.72,SSW,203,3.4,9.8,65,0.00,,,0.01,WUHU216HW,2013-01-29 03:58:00,
2013-01-28 21:03:00,27.5,17.6,29.72,WSW,248,2.5,9.8,66,0.00,,,0.01,WUHU216HW,2013-01-29 04:03:00,
2013-01-28 21:08:00,27.5,17.3,29.71,SSW,203,5.4,9.8,65,0.00,,,0.01,WUHU216HW,2013-01-29 04:08:00,
2013-01-28 21:13:00,27.5,17.3,29.72,SW,225,4.5,9.2,65,0.00,,,0.01,WUHU216HW,2013-01-29 04:13:00,
2013-01-28 21:18:00,27.4,17.1,29.72,WSW,248,3.4,9.2,65,0.00,,,0.01,WUHU216HW,2013-01-29 04:18:00,
2013-01-28 21:23:00,27.4,17.5,29.71,SE,135,4.0,6.5,66,0.00,,,0.01,WUHU216HW,2013-01-29 04:23:00,
2013-01-28 21:28:00,27.2,16.9,29.71,SSE,158,3.1,7.4,65,0.00,,,0.01,WUHU216HW,2013-01-29 04:28:00,
2013-01-28 21:33:00,27.0,16.7,29.71,WSW,248,4.7,7.4,65,0.00,,,0.01,WUHU216HW,2013-01-29 04:33:00,
2013-01-28 21:38:00,27.0,17.1,29.71,WSW,248,6.0,6.5,66,0.00,,,0.01,WUHU216HW,2013-01-29 04:38:00,
2013-01-28 21:43:00,27.0,17.1,29.71,WSW,248,5.6,7.2,66,0.00,,,0.01,WUHU216HW,2013-01-29 04:43:00,
2013-01-28 21:48:00,27.0,17.1,29.71,WSW,248,7.6,7.6,66,0.00,,,0.01,WUHU216HW,2013-01-29 04:48:00,
2013-01-28 21:53:00,27.0,17.1,29.71,WNW,293,3.1,7.6,66,0.00,,,0.01,WUHU216HW,2013-01-29 04:53:00,
2013-01-28 21:58:00,27.0,17.1,29.71,WSW,248,2.2,7.6,66,0.00,,,0.01,WUHU216HW,2013-01-29 04:58:00,
2013-01-28 22:01:00,27.0,17.1,29.71,SW,225,2.2,6.5,66,0.00,,,0.01,WUHU216HW,2013-01-29 05:01:00,
2013-01-28 22:03:00,27.0,17.1,29.71,WSW,248,3.1,6.9,66,0.00,,,0.01,WUHU216HW,2013-01-29 05:03:00,
2013-01-28 22:08:00,27.0,17.1,29.71,WSW,248,2.9,6.9,66,0.00,,,0.01,WUHU216HW,2013-01-29 05:08:00,
2013-01-28 22:13:00,26.8,16.9,29.70,SW,225,1.8,5.4,66,0.00,,,0.01,WUHU216HW,2013-01-29 05:13:00,
2013-01-28 22:18:00,26.6,16.7,29.70,West,270,1.6,4.9,66,0.00,,,0.01,WUHU216HW,2013-01-29 05:18:00,
2013-01-28 22:23:00,26.5,16.6,29.70,West,270,5.1,5.1,66,0.00,,,0.01,WUHU216HW,2013-01-29 05:23:00,
2013-01-28 22:28:00,26.3,16.4,29.70,SW,225,1.6,5.1,66,0.00,,,0.01,WUHU216HW,2013-01-29 05:28:00,
2013-01-28 22:33:00,26.1,16.2,29.70,WSW,248,4.7,5.8,66,0.00,,,0.01,WUHU216HW,2013-01-29 05:33:00,
2013-01-28 22:38:00,25.9,16.0,29.70,SSW,203,2.5,5.8,66,0.00,,,0.01,WUHU216HW,2013-01-29 05:38:00,
2013-01-28 22:43:00,25.7,15.8,29.70,South,180,2.2,6.3,66,0.00,,,0.01,WUHU216HW,2013-01-29 05:43:00,
2013-01-28 22:48:00,25.6,15.7,29.70,West,270,1.8,7.4,66,0.00,,,0.01,WUHU216HW,2013-01-29 05:48:00,
2013-01-28 22:53:00,25.4,15.6,29.70,East,90,0.7,7.4,66,0.00,,,0.01,WUHU216HW,2013-01-29 05:53:00,
2013-01-28 22:58:00,25.2,15.7,29.70,SSW,203,1.1,4.0,67,0.00,,,0.01,WUHU216HW,2013-01-29 05:58:00,
2013-01-28 23:03:00,25.0,15.6,29.70,NNE,23,0.4,4.7,67,0.00,,,0.01,WUHU216HW,2013-01-29 06:03:00,
2013-01-28 23:08:00,24.8,15.4,29.70,SSW,203,1.3,4.7,67,0.00,,,0.01,WUHU216HW,2013-01-29 06:08:00,
2013-01-28 23:13:00,24.7,15.2,29.70,SW,225,0.9,1.6,67,0.00,,,0.01,WUHU216HW,2013-01-29 06:13:00,
2013-01-28 23:18:00,24.5,15.0,29.70,ESE,113,0.4,1.6,67,0.00,,,0.01,WUHU216HW,2013-01-29 06:18:00,
2013-01-28 23:23:00,24.3,15.2,29.70,ESE,113,1.6,2.7,68,0.00,,,0.01,WUHU216HW,2013-01-29 06:23:00,
2013-01-28 23:28:00,24.1,15.0,29.69,East,90,0.7,4.0,68,0.00,,,0.01,WUHU216HW,2013-01-29 06:28:00,
2013-01-28 23:33:00,24.1,15.0,29.70,WSW,248,4.0,4.7,68,0.00,,,0.01,WUHU216HW,2013-01-29 06:33:00,
2013-01-28 23:38:00,23.9,15.2,29.69,WSW,248,2.5,6.7,69,0.00,,,0.01,WUHU216HW,2013-01-29 06:38:00,
2013-01-28 23:43:00,24.1,15.4,29.69,SW,225,4.7,6.7,69,0.00,,,0.01,WUHU216HW,2013-01-29 06:43:00,
2013-01-28 23:48:00,24.1,15.4,29.69,South,180,2.0,4.9,69,0.00,,,0.01,WUHU216HW,2013-01-29 06:48:00,
2013-01-28 23:53:00,24.1,15.4,29.69,SSW,203,6.3,9.8,69,0.00,,,0.01,WUHU216HW,2013-01-29 06:53:00,
2013-01-28 23:58:00,24.1,15.4,29.69,SW,225,4.5,9.8,69,0.00,,,0.01,WUHU216HW,2013-01-29 06:58:00,